Time;durP1;ratioP1;P1;durP2;ratioP2;P2;SDS_P1;SDS_P2;PMS_P1;PMS_P2;Temp;Humidity;BMP_temperature;BMP_pressure;BME280_temperature;BME280_humidity;BME280_pressure;Samples;Min_cycle;Max_cycle;Signal;HPM_P1;HPM_P2
2022/04/30 00:02:11;;;;;;;8.23;6.57;;;9.60;1.00;;;;;;5067400;28;20669;-87
2022/04/30 00:04:42;;;;;;;8.50;6.50;;;9.50;1.00;;;;;;5063794;28;20241;-82
2022/04/30 00:07:09;;;;;;;10.67;7.47;;;9.50;1.00;;;;;;5064603;28;20173;-82
2022/04/30 00:09:36;;;;;;;10.67;7.30;;;9.40;1.00;;;;;;5065452;28;20594;-80
2022/04/30 00:12:03;;;;;;;8.60;6.87;;;9.40;1.00;;;;;;5082450;28;20260;-85
2022/04/30 00:14:31;;;;;;;10.47;7.37;;;9.40;1.00;;;;;;5066551;28;20629;-83
2022/04/30 00:16:57;;;;;;;10.20;7.17;;;9.40;1.00;;;;;;5054222;28;20328;-84
2022/04/30 00:19:24;;;;;;;7.80;6.37;;;9.30;1.00;;;;;;5025845;28;20166;-85
2022/04/30 00:21:51;;;;;;;10.97;7.00;;;9.30;1.00;;;;;;5020904;28;20250;-86
2022/04/30 00:24:17;;;;;;;11.93;7.70;;;9.20;1.00;;;;;;5022648;28;20194;-86
2022/04/30 00:26:43;;;;;;;11.13;7.50;;;9.20;1.00;;;;;;5020553;28;20171;-83
2022/04/30 00:29:11;;;;;;;10.00;6.70;;;9.20;1.00;;;;;;5020452;28;20238;-82
2022/04/30 00:31:37;;;;;;;8.43;6.47;;;9.20;1.00;;;;;;5021405;28;20182;-84
2022/04/30 00:34:05;;;;;;;11.23;8.03;;;9.10;1.00;;;;;;5019324;28;20178;-85
2022/04/30 00:36:31;;;;;;;8.13;6.07;;;9.10;1.00;;;;;;5019168;28;20526;-82
2022/04/30 00:39:04;;;;;;;10.17;7.70;;;9.10;1.00;;;;;;5017947;28;20194;-86
2022/04/30 00:41:32;;;;;;;12.97;7.67;;;9.00;1.00;;;;;;5031792;28;20210;-83
2022/04/30 00:44:00;;;;;;;10.77;8.07;;;9.00;1.00;;;;;;5018416;28;20170;-84
2022/04/30 00:46:26;;;;;;;9.87;7.70;;;9.00;1.00;;;;;;5018138;28;20166;-84
2022/04/30 00:48:53;;;;;;;12.47;7.43;;;9.10;1.00;;;;;;5031687;28;20178;-82
2022/04/30 00:51:23;;;;;;;11.80;7.70;;;9.10;1.00;;;;;;5032342;28;20545;-84
2022/04/30 00:53:53;;;;;;;11.03;7.77;;;9.00;1.00;;;;;;5016737;28;20269;-82
2022/04/30 00:56:24;;;;;;;9.53;7.30;;;9.00;1.00;;;;;;5016687;28;20182;-85
2022/04/30 00:58:50;;;;;;;13.37;8.27;;;9.00;1.00;;;;;;5015286;28;20179;-85
2022/04/30 01:01:15;;;;;;;11.60;8.17;;;8.90;1.00;;;;;;5016621;28;20186;-83
2022/04/30 01:03:43;;;;;;;12.87;7.90;;;8.90;1.00;;;;;;5017431;28;20266;-86
2022/04/30 01:06:10;;;;;;;13.90;8.07;;;8.90;1.00;;;;;;5017179;28;20163;-86
2022/04/30 01:08:37;;;;;;;16.50;7.67;;;8.90;1.00;;;;;;5017802;28;20233;-83
2022/04/30 01:11:04;;;;;;;14.43;8.40;;;8.80;1.00;;;;;;5020139;28;20174;-85
2022/04/30 01:13:38;;;;;;;10.63;7.63;;;8.80;1.00;;;;;;5017319;28;20710;-83
2022/04/30 01:16:08;;;;;;;9.57;7.87;;;8.80;1.00;;;;;;5017263;28;20449;-85
2022/04/30 01:18:35;;;;;;;11.57;7.77;;;8.80;1.00;;;;;;5016743;28;20635;-84
2022/04/30 01:21:07;;;;;;;11.90;7.80;;;8.80;1.00;;;;;;5020044;28;20167;-84
2022/04/30 01:23:34;;;;;;;12.13;7.63;;;8.70;1.00;;;;;;5016965;28;20232;-84
2022/04/30 01:26:05;;;;;;;8.80;7.10;;;8.70;1.00;;;;;;5020669;28;20535;-85
2022/04/30 01:28:30;;;;;;;11.97;8.07;;;8.70;1.00;;;;;;5018723;28;20162;-84
2022/04/30 01:30:58;;;;;;;10.93;7.37;;;8.60;1.00;;;;;;5015901;28;20657;-84
2022/04/30 01:39:01;;;;;;;10.53;6.63;;;8.50;1.00;;;;;;5035254;28;20193;-81
2022/04/30 01:41:27;;;;;;;11.07;7.57;;;8.40;1.00;;;;;;5063813;28;20260;-83
2022/04/30 01:43:56;;;;;;;9.40;6.80;;;8.30;1.00;;;;;;5062932;28;20200;-82
2022/04/30 01:46:32;;;;;;;10.03;6.40;;;8.30;1.00;;;;;;5045945;28;20171;-84
2022/04/30 01:48:57;;;;;;;11.77;7.43;;;8.30;1.00;;;;;;5014072;28;20225;-84
2022/04/30 01:51:23;;;;;;;9.17;6.30;;;8.30;1.00;;;;;;5015526;28;20683;-83
2022/04/30 01:53:49;;;;;;;12.03;7.80;;;8.50;1.00;;;;;;5015722;28;20197;-84
2022/04/30 01:56:14;;;;;;;8.63;6.07;;;8.30;1.00;;;;;;5023179;28;20230;-82
2022/04/30 01:58:40;;;;;;;9.40;7.03;;;8.30;1.00;;;;;;5020536;28;20167;-83
2022/04/30 02:01:07;;;;;;;11.60;7.53;;;8.20;1.00;;;;;;5015426;28;20193;-84
2022/04/30 02:03:34;;;;;;;9.57;6.73;;;8.20;1.00;;;;;;5015407;28;20178;-83
2022/04/30 02:06:00;;;;;;;8.93;7.20;;;8.10;1.00;;;;;;5015416;28;20174;-83
2022/04/30 02:08:31;;;;;;;11.10;7.33;;;8.10;1.00;;;;;;5015313;28;20166;-84
2022/04/30 02:11:00;;;;;;;10.00;6.43;;;8.00;1.00;;;;;;5023089;28;20185;-85
2022/04/30 02:13:30;;;;;;;10.83;7.20;;;8.00;1.00;;;;;;5035838;28;20233;-80
2022/04/30 02:15:57;;;;;;;8.90;6.70;;;8.00;1.00;;;;;;5046452;28;20188;-86
2022/04/30 02:18:25;;;;;;;12.03;6.80;;;8.00;1.00;;;;;;5054573;28;20169;-86
2022/04/30 02:20:53;;;;;;;10.10;6.80;;;8.00;1.00;;;;;;5054806;28;20692;-84
2022/04/30 02:23:22;;;;;;;9.73;6.50;;;8.00;1.00;;;;;;5052574;28;20315;-84
2022/04/30 02:25:50;;;;;;;7.67;6.53;;;8.10;1.00;;;;;;5054993;28;20158;-85
2022/04/30 02:28:15;;;;;;;10.33;5.67;;;7.90;1.00;;;;;;5054466;28;20254;-85
2022/04/30 02:30:42;;;;;;;10.10;6.63;;;7.80;1.00;;;;;;5055027;28;20622;-84
2022/04/30 02:33:09;;;;;;;8.80;6.33;;;7.80;4.20;;;;;;5069835;28;20183;-86
2022/04/30 02:35:39;;;;;;;10.30;6.40;;;7.80;5.60;;;;;;5054982;28;20169;-84
2022/04/30 02:38:08;;;;;;;10.10;7.20;;;7.80;4.40;;;;;;5053819;28;20177;-81
2022/04/30 02:40:35;;;;;;;9.03;6.63;;;7.80;4.80;;;;;;5049295;28;20185;-84
2022/04/30 02:43:06;;;;;;;14.93;7.23;;;7.80;6.00;;;;;;5034331;28;20243;-84
2022/04/30 02:45:32;;;;;;;7.37;5.17;;;7.80;6.60;;;;;;5034550;28;20173;-84
2022/04/30 02:47:58;;;;;;;9.23;6.30;;;7.70;5.50;;;;;;5035518;28;20173;-83
2022/04/30 02:50:25;;;;;;;10.23;5.93;;;7.70;8.30;;;;;;5038869;28;20184;-86
2022/04/30 02:52:55;;;;;;;10.07;6.30;;;7.60;10.40;;;;;;5034664;28;20177;-83
2022/04/30 02:55:23;;;;;;;8.07;6.27;;;7.70;11.50;;;;;;5037773;28;20154;-84
2022/04/30 03:00:51;;;;;;;10.03;6.13;;;7.60;12.40;;;;;;5037990;28;20200;-82
2022/04/30 03:03:17;;;;;;;9.33;6.33;;;7.60;16.50;;;;;;5034930;28;20244;-84
2022/04/30 03:05:44;;;;;;;10.90;6.10;;;7.60;15.10;;;;;;5035565;28;20524;-83
2022/04/30 03:08:21;;;;;;;8.50;6.40;;;7.60;16.20;;;;;;5036734;28;20219;-83
2022/04/30 03:10:51;;;;;;;9.73;6.67;;;7.50;15.30;;;;;;5035641;28;20177;-85
2022/04/30 03:13:20;;;;;;;8.77;6.30;;;7.50;16.50;;;;;;5034516;28;20215;-82
2022/04/30 03:15:48;;;;;;;9.03;6.67;;;7.50;17.60;;;;;;5033757;28;20161;-85
2022/04/30 03:23:41;;;;;;;10.70;6.80;;;7.50;19.80;;;;;;5038236;28;20193;-84
2022/04/30 03:26:09;;;;;;;7.43;5.87;;;7.50;20.20;;;;;;5049618;28;20154;-85
2022/04/30 03:28:38;;;;;;;11.23;7.13;;;7.50;19.20;;;;;;5056723;28;20197;-84
2022/04/30 03:31:10;;;;;;;11.40;7.30;;;7.50;20.50;;;;;;5054988;28;20168;-84
2022/04/30 03:33:36;;;;;;;11.40;7.03;;;7.40;22.80;;;;;;5055801;28;20149;-82
2022/04/30 03:36:02;;;;;;;9.43;7.27;;;7.30;24.30;;;;;;5052882;28;20170;-84
2022/04/30 03:38:28;;;;;;;11.83;6.87;;;7.40;26.00;;;;;;5054999;28;20204;-80
2022/04/30 03:41:00;;;;;;;11.07;7.80;;;7.40;25.80;;;;;;5053497;28;20213;-81
2022/04/30 03:43:26;;;;;;;10.37;8.03;;;7.40;26.20;;;;;;5051659;28;20229;-84
2022/04/30 03:45:54;;;;;;;9.03;6.90;;;7.40;28.60;;;;;;5043813;28;20174;-84
2022/04/30 03:48:23;;;;;;;9.87;7.27;;;7.30;29.60;;;;;;5031135;28;20171;-84
2022/04/30 03:50:49;;;;;;;17.40;8.10;;;7.30;30.90;;;;;;5032898;28;20226;-82
2022/04/30 03:53:20;;;;;;;12.80;7.57;;;7.20;33.50;;;;;;5020382;28;20213;-85
2022/04/30 03:55:51;;;;;;;12.37;7.23;;;7.30;35.30;;;;;;5016675;28;20693;-83
2022/04/30 03:58:16;;;;;;;10.97;7.80;;;7.20;36.60;;;;;;5017989;28;20177;-83
2022/04/30 04:00:43;;;;;;;10.67;7.63;;;7.20;38.50;;;;;;5017803;28;20522;-86
2022/04/30 04:03:09;;;;;;;12.13;7.60;;;7.30;38.60;;;;;;5017691;28;20217;-84
2022/04/30 04:05:35;;;;;;;10.90;7.13;;;7.20;39.70;;;;;;5016177;28;20174;-85
2022/04/30 04:08:01;;;;;;;15.07;8.00;;;7.20;41.30;;;;;;5016939;28;20254;-85
2022/04/30 04:10:27;;;;;;;11.83;7.40;;;7.20;41.50;;;;;;5018713;28;20175;-84
2022/04/30 04:17:37;;;;;;;12.13;6.97;;;7.20;40.80;;;;;;5037035;28;20260;-83
2022/04/30 04:18:36;;;;;;;11.33;8.00;;;7.10;43.40;;;;;;5025451;28;20661;-86
2022/04/30 04:21:02;;;;;;;13.40;7.47;;;7.20;43.90;;;;;;5037733;28;20170;-82
2022/04/30 04:23:28;;;;;;;12.80;7.33;;;7.20;44.10;;;;;;5038466;28;20205;-84
2022/04/30 04:26:00;;;;;;;10.97;7.80;;;7.20;43.80;;;;;;5038931;28;20201;-84
2022/04/30 04:28:29;;;;;;;12.77;8.00;;;7.10;45.40;;;;;;5039385;28;20165;-86
2022/04/30 04:30:57;;;;;;;11.33;7.23;;;7.10;45.80;;;;;;5038428;28;20197;-85
2022/04/30 04:33:28;;;;;;;11.43;8.20;;;7.20;46.80;;;;;;5037810;28;20174;-85
2022/04/30 04:35:53;;;;;;;9.07;6.97;;;7.10;46.90;;;;;;5037581;28;20173;-81
2022/04/30 04:38:19;;;;;;;12.13;7.50;;;7.20;47.90;;;;;;5038184;28;20220;-83
2022/04/30 04:40:45;;;;;;;12.27;7.43;;;7.10;48.70;;;;;;5054254;28;20169;-83
2022/04/30 04:43:11;;;;;;;12.33;7.67;;;7.10;48.90;;;;;;5053893;28;20209;-81
2022/04/30 04:45:37;;;;;;;10.87;7.60;;;7.20;46.70;;;;;;5049849;28;20174;-83
2022/04/30 04:48:05;;;;;;;13.43;8.20;;;7.20;46.20;;;;;;5061274;28;20177;-85
2022/04/30 04:50:30;;;;;;;14.10;7.33;;;7.10;49.00;;;;;;5039061;28;20253;-85
2022/04/30 04:52:56;;;;;;;12.53;8.77;;;7.10;50.30;;;;;;5037906;28;20209;-85
2022/04/30 04:55:22;;;;;;;10.03;7.23;;;7.10;50.00;;;;;;5037492;28;20178;-85
2022/04/30 04:57:48;;;;;;;11.37;7.13;;;7.10;48.90;;;;;;5037893;28;20176;-86
2022/04/30 05:00:14;;;;;;;14.80;7.50;;;7.10;50.00;;;;;;5037431;28;20540;-84
2022/04/30 05:02:40;;;;;;;12.83;8.17;;;7.10;49.60;;;;;;5036794;28;20221;-85
2022/04/30 05:05:06;;;;;;;12.03;6.70;;;7.10;50.00;;;;;;5037593;28;20720;-86
2022/04/30 05:07:32;;;;;;;12.53;8.27;;;7.10;50.70;;;;;;5036107;28;20273;-83
2022/04/30 05:09:57;;;;;;;13.20;8.40;;;7.10;52.10;;;;;;5037213;28;20186;-85
2022/04/30 05:12:23;;;;;;;10.53;7.23;;;7.10;52.40;;;;;;5036995;28;20632;-83
2022/04/30 05:14:52;;;;;;;12.63;8.13;;;7.20;52.60;;;;;;5034893;28;20181;-83
2022/04/30 05:17:18;;;;;;;14.33;8.87;;;7.20;52.40;;;;;;5044714;28;20190;-82
2022/04/30 05:19:44;;;;;;;13.47;8.20;;;7.20;51.90;;;;;;5054797;28;20174;-85
2022/04/30 05:22:11;;;;;;;14.53;8.03;;;7.30;49.80;;;;;;5043310;28;20291;-86
2022/04/30 05:24:37;;;;;;;11.30;8.17;;;7.40;48.80;;;;;;5054697;28;20637;-85
2022/04/30 05:27:03;;;;;;;11.97;8.43;;;7.40;47.80;;;;;;5036466;28;20220;-82
2022/04/30 05:29:28;;;;;;;12.27;7.77;;;7.40;48.20;;;;;;5037804;28;20180;-85
2022/04/30 05:31:54;;;;;;;11.50;7.43;;;7.30;47.60;;;;;;5036851;28;20174;-85
2022/04/30 05:34:20;;;;;;;14.57;8.23;;;7.30;47.70;;;;;;5035989;28;20180;-84
2022/04/30 05:36:45;;;;;;;12.23;7.90;;;7.20;49.00;;;;;;5035975;28;20253;-84
2022/04/30 05:39:11;;;;;;;12.87;8.47;;;7.30;49.90;;;;;;5035678;28;20196;-84
2022/04/30 05:41:37;;;;;;;14.00;8.23;;;7.30;50.20;;;;;;5035683;28;20222;-83
2022/04/30 05:44:03;;;;;;;13.43;8.10;;;7.30;51.00;;;;;;5036356;28;20177;-85
2022/04/30 05:46:28;;;;;;;15.53;8.00;;;7.30;51.00;;;;;;5029713;28;20174;-84
2022/04/30 05:48:54;;;;;;;14.73;8.27;;;7.40;50.20;;;;;;5016566;28;20194;-83
2022/04/30 05:51:20;;;;;;;11.80;8.37;;;7.40;49.90;;;;;;5017173;28;20179;-86
2022/04/30 05:53:46;;;;;;;12.37;8.30;;;7.40;49.00;;;;;;5025872;28;20166;-84
2022/04/30 05:56:12;;;;;;;14.47;8.00;;;7.50;49.70;;;;;;5026754;28;20189;-84
2022/04/30 05:58:39;;;;;;;11.67;8.30;;;7.50;47.60;;;;;;5026115;28;20171;-83
2022/04/30 06:01:05;;;;;;;15.20;8.80;;;7.60;47.90;;;;;;5018559;28;20221;-81
2022/04/30 06:03:32;;;;;;;11.60;8.90;;;7.70;50.30;;;;;;5015984;28;20233;-83
2022/04/30 06:05:58;;;;;;;14.07;9.00;;;7.80;48.40;;;;;;5015326;28;20205;-84
2022/04/30 06:08:24;;;;;;;15.13;9.27;;;7.90;44.40;;;;;;5015836;28;20213;-84
2022/04/30 06:10:50;;;;;;;15.53;7.87;;;7.90;41.60;;;;;;5015193;28;20250;-83
2022/04/30 06:13:16;;;;;;;12.57;8.90;;;7.90;39.70;;;;;;5016016;28;20253;-83
2022/04/30 06:15:41;;;;;;;13.67;9.73;;;7.80;40.80;;;;;;5015995;28;20174;-83
2022/04/30 06:18:08;;;;;;;10.70;6.90;;;7.90;44.60;;;;;;5014723;28;20173;-84
2022/04/30 06:20:35;;;;;;;12.97;8.77;;;8.00;40.60;;;;;;5036854;28;20170;-84
2022/04/30 06:23:13;;;;;;;15.77;8.73;;;8.00;40.10;;;;;;5023119;28;20345;-84
2022/04/30 06:25:40;;;;;;;14.67;8.50;;;8.00;39.00;;;;;;5039571;28;20205;-85
2022/04/30 06:28:06;;;;;;;13.13;9.17;;;8.00;39.20;;;;;;5019091;28;20178;-83
2022/04/30 06:30:32;;;;;;;12.50;9.27;;;8.00;40.50;;;;;;5030935;28;20598;-84
2022/04/30 06:32:57;;;;;;;12.93;7.33;;;8.10;39.90;;;;;;5015727;28;20167;-83
2022/04/30 06:35:23;;;;;;;12.93;8.47;;;8.20;37.90;;;;;;5041732;28;20188;-82
2022/04/30 06:37:49;;;;;;;14.10;8.03;;;8.20;36.00;;;;;;5037189;28;20205;-83
2022/04/30 06:40:15;;;;;;;13.60;8.53;;;8.30;34.90;;;;;;5038396;28;20194;-82
2022/04/30 06:42:42;;;;;;;15.23;8.63;;;8.30;30.60;;;;;;5040090;28;20214;-82
2022/04/30 06:45:12;;;;;;;12.13;8.17;;;8.30;32.20;;;;;;5041478;28;20174;-83
2022/04/30 06:47:39;;;;;;;12.93;9.27;;;8.40;29.70;;;;;;5036894;28;20176;-82
2022/04/30 06:50:06;;;;;;;10.70;7.73;;;8.40;28.80;;;;;;5052490;28;20545;-86
2022/04/30 06:52:31;;;;;;;14.30;8.67;;;8.50;24.60;;;;;;5031746;28;20201;-82
2022/04/30 06:57:46;;;;;;;10.53;7.63;;;8.70;22.90;;;;;;5027068;28;20262;-83
2022/04/30 07:02:59;;;;;;;10.10;7.97;;;8.70;17.20;;;;;;5026268;28;20216;-84
2022/04/30 07:05:26;;;;;;;10.87;6.53;;;8.80;15.20;;;;;;5025116;28;20169;-83
2022/04/30 07:07:53;;;;;;;13.37;8.17;;;8.90;13.70;;;;;;5033463;28;20200;-86
2022/04/30 07:10:19;;;;;;;9.97;7.43;;;9.00;13.00;;;;;;5036208;28;20276;-86
2022/04/30 07:12:47;;;;;;;10.80;6.70;;;9.00;4.00;;;;;;5048748;28;20285;-86
2022/04/30 07:15:14;;;;;;;11.90;7.47;;;9.20;1.80;;;;;;5054902;28;20199;-80
2022/04/30 07:17:40;;;;;;;11.73;8.10;;;9.20;1.00;;;;;;5055805;28;20192;-84
2022/04/30 07:20:07;;;;;;;10.30;7.67;;;9.30;1.00;;;;;;5055982;28;20169;-81
2022/04/30 07:22:33;;;;;;;11.27;6.83;;;9.30;1.00;;;;;;5055153;28;20265;-85
2022/04/30 07:24:58;;;;;;;8.23;5.83;;;9.30;1.00;;;;;;5054000;28;20176;-86
2022/04/30 07:27:24;;;;;;;13.67;7.50;;;9.50;1.00;;;;;;5023063;28;20284;-82
2022/04/30 07:29:50;;;;;;;10.23;6.53;;;9.50;1.00;;;;;;5035542;28;20173;-85
2022/04/30 07:32:15;;;;;;;12.60;7.10;;;9.50;1.00;;;;;;5040302;28;20642;-83
2022/04/30 07:34:42;;;;;;;9.03;5.73;;;9.50;1.00;;;;;;5037572;28;20196;-85
2022/04/30 07:37:10;;;;;;;8.03;5.40;;;9.50;1.00;;;;;;5040102;28;20257;-85
2022/04/30 07:39:37;;;;;;;7.30;5.33;;;9.40;1.00;;;;;;5038581;28;20173;-84
2022/04/30 07:42:03;;;;;;;11.90;5.07;;;9.50;1.00;;;;;;5038752;28;20216;-83
2022/04/30 07:44:30;;;;;;;8.03;5.37;;;9.50;1.00;;;;;;5040290;28;20864;-85
2022/04/30 07:46:58;;;;;;;9.73;5.20;;;9.50;1.00;;;;;;5035859;28;20240;-85
2022/04/30 07:49:26;;;;;;;10.33;4.97;;;9.50;1.00;;;;;;5034488;28;20188;-82
2022/04/30 07:51:57;;;;;;;6.77;4.83;;;9.50;1.00;;;;;;5032789;28;20178;-85
2022/04/30 07:54:24;;;;;;;8.83;5.47;;;9.40;1.00;;;;;;5039255;28;20166;-81
2022/04/30 07:56:54;;;;;;;6.27;4.60;;;9.50;1.00;;;;;;5060439;28;20168;-80
2022/04/30 07:59:21;;;;;;;10.57;6.07;;;9.50;1.00;;;;;;5058611;28;20165;-82
2022/04/30 08:01:48;;;;;;;9.40;5.33;;;9.70;1.00;;;;;;5057443;28;20225;-83
2022/04/30 08:04:14;;;;;;;7.57;4.47;;;9.60;1.00;;;;;;5070994;28;20180;-79
2022/04/30 08:06:41;;;;;;;6.30;4.97;;;9.70;1.00;;;;;;5048689;28;20174;-82
2022/04/30 08:09:08;;;;;;;6.87;5.20;;;9.80;1.00;;;;;;5048508;28;20178;-86
2022/04/30 08:11:41;;;;;;;7.40;4.43;;;9.80;1.00;;;;;;5040825;28;20173;-80
2022/04/30 08:14:07;;;;;;;7.10;4.90;;;9.80;1.00;;;;;;5026545;28;20591;-81
2022/04/30 08:16:32;;;;;;;8.63;5.10;;;9.90;1.00;;;;;;5033249;28;20232;-85
2022/04/30 08:18:58;;;;;;;9.07;5.23;;;10.00;1.00;;;;;;5027898;28;20203;-84
2022/04/30 08:21:25;;;;;;;8.80;5.27;;;10.10;1.00;;;;;;5027809;28;20182;-80
2022/04/30 08:23:51;;;;;;;8.67;5.47;;;10.10;1.00;;;;;;5038627;28;20182;-82
2022/04/30 08:26:17;;;;;;;10.77;6.07;;;10.20;1.00;;;;;;5040585;28;20622;-86
2022/04/30 08:28:43;;;;;;;9.33;5.97;;;10.20;1.00;;;;;;5038593;28;20184;-84
2022/04/30 08:31:08;;;;;;;6.60;5.03;;;10.10;1.00;;;;;;5039060;28;20681;-80
2022/04/30 08:33:36;;;;;;;11.10;5.80;;;10.00;1.00;;;;;;5040942;28;20179;-86
2022/04/30 08:36:01;;;;;;;8.90;5.43;;;10.00;1.00;;;;;;5037565;28;20174;-83
2022/04/30 08:38:27;;;;;;;8.20;5.83;;;10.10;1.00;;;;;;5033997;28;20725;-85
2022/04/30 08:40:53;;;;;;;10.30;5.67;;;10.30;1.00;;;;;;5038441;28;20561;-85
2022/04/30 08:43:20;;;;;;;9.43;5.93;;;10.50;1.00;;;;;;5048461;28;20638;-83
2022/04/30 08:45:46;;;;;;;7.77;5.63;;;10.40;1.00;;;;;;5029473;28;20183;-84
2022/04/30 08:48:16;;;;;;;9.10;5.37;;;10.50;1.00;;;;;;5039853;28;20233;-85
2022/04/30 08:50:44;;;;;;;10.30;5.80;;;10.50;1.00;;;;;;5041275;28;20167;-84
2022/04/30 08:53:10;;;;;;;7.67;5.60;;;10.50;1.00;;;;;;5052728;28;20204;-83
2022/04/30 08:55:37;;;;;;;8.17;4.87;;;10.50;1.00;;;;;;5056086;28;20249;-83
2022/04/30 08:58:04;;;;;;;6.00;5.30;;;10.40;1.00;;;;;;5064053;28;20226;-82
2022/04/30 09:00:30;;;;;;;7.27;5.77;;;10.40;1.00;;;;;;5036368;28;20139;-84
2022/04/30 09:02:59;;;;;;;9.03;5.83;;;10.60;1.00;;;;;;5049014;28;20225;-81
2022/04/30 09:05:33;;;;;;;10.10;5.73;;;10.60;1.00;;;;;;5023986;28;20181;-84
2022/04/30 09:08:00;;;;;;;7.37;5.30;;;10.70;1.00;;;;;;5031191;28;20162;-83
2022/04/30 09:10:29;;;;;;;7.53;4.90;;;10.90;1.00;;;;;;5036733;28;20285;-83
2022/04/30 09:13:05;;;;;;;6.30;4.80;;;11.10;99.90;;;;;;5040597;28;20182;-82
2022/04/30 09:15:31;;;;;;;6.23;5.23;;;11.00;99.90;;;;;;5057805;28;20195;-80
2022/04/30 09:18:01;;;;;;;7.90;5.37;;;10.90;99.90;;;;;;5053110;28;20197;-80
2022/04/30 09:20:30;;;;;;;7.57;6.13;;;11.10;99.90;;;;;;5054338;28;20181;-80
2022/04/30 09:22:56;;;;;;;5.53;4.90;;;11.20;99.90;;;;;;5047229;28;20214;-81
2022/04/30 09:25:23;;;;;;;9.10;5.33;;;11.20;99.90;;;;;;5043035;28;20181;-86
2022/04/30 09:27:55;;;;;;;6.40;5.23;;;11.20;99.90;;;;;;5036996;28;20189;-85
2022/04/30 09:30:29;;;;;;;7.33;5.50;;;11.10;99.90;;;;;;5037341;28;20169;-85
2022/04/30 09:33:07;;;;;;;8.07;5.73;;;11.20;99.90;;;;;;5037662;28;20169;-83
2022/04/30 09:38:23;;;;;;;6.67;5.40;;;11.40;99.90;;;;;;5036581;28;20219;-82
2022/04/30 09:40:54;;;;;;;6.80;5.20;;;11.40;99.90;;;;;;5034392;28;20247;-83
2022/04/30 09:43:20;;;;;;;8.20;5.33;;;11.50;99.90;;;;;;5035611;28;20676;-83
2022/04/30 09:45:46;;;;;;;6.80;6.07;;;11.70;99.90;;;;;;5036089;28;20166;-84
2022/04/30 09:54:00;;;;;;;9.57;5.60;;;11.60;94.00;;;;;;5025527;28;20185;-83
2022/04/30 09:56:36;;;;;;;6.30;5.20;;;11.70;1.00;;;;;;5031578;28;20162;-83
2022/04/30 09:59:04;;;;;;;7.30;5.53;;;11.80;1.00;;;;;;5035438;28;20153;-81
2022/04/30 10:01:32;;;;;;;6.80;4.83;;;11.80;99.90;;;;;;5019520;28;20189;-80
2022/04/30 10:04:00;;;;;;;6.17;4.70;;;11.90;99.90;;;;;;5031502;28;20318;-83
2022/04/30 10:06:26;;;;;;;10.27;5.10;;;12.00;1.00;;;;;;5032700;28;20526;-80
2022/04/30 10:08:52;;;;;;;8.83;5.40;;;11.90;1.00;;;;;;5030033;28;20181;-83
2022/04/30 10:11:40;;;;;;;9.40;6.20;;;11.90;99.90;;;;;;5034553;28;20261;-81
2022/04/30 10:14:31;;;;;;;8.50;5.57;;;12.20;1.00;;;;;;5033237;28;20212;-83
2022/04/30 10:17:16;;;;;;;8.03;6.10;;;12.30;1.00;;;;;;5014599;28;20229;-83
2022/04/30 10:19:42;;;;;;;7.63;5.97;;;12.30;1.00;;;;;;5026326;28;20219;-81
2022/04/30 10:22:11;;;;;;;9.10;6.07;;;12.20;1.00;;;;;;5048760;28;20197;-85
2022/04/30 10:24:49;;;;;;;8.93;5.93;;;12.10;1.00;;;;;;5045197;28;20174;-82
2022/04/30 10:27:16;;;;;;;9.00;7.30;;;12.10;66.70;;;;;;5020065;28;20204;-86
2022/04/30 10:29:59;;;;;;;9.10;6.93;;;12.20;99.90;;;;;;5039702;28;20315;-84
2022/04/30 10:32:33;;;;;;;7.97;6.47;;;12.30;1.00;;;;;;5036243;28;20173;-84
2022/04/30 10:35:00;;;;;;;10.00;8.23;;;12.10;99.90;;;;;;5043302;28;20166;-82
2022/04/30 10:37:36;;;;;;;9.20;7.13;;;12.10;99.90;;;;;;5058987;28;20170;-81
2022/04/30 10:40:08;;;;;;;9.37;7.80;;;12.10;99.90;;;;;;5026000;28;20174;-83
2022/04/30 10:42:45;;;;;;;10.73;8.60;;;12.10;99.90;;;;;;5050077;28;20232;-84
2022/04/30 10:45:15;;;;;;;7.97;6.83;;;12.00;99.90;;;;;;5036225;28;20562;-83
2022/04/30 10:47:56;;;;;;;9.73;7.70;;;12.00;99.90;;;;;;5018227;28;20182;-83
2022/04/30 10:50:22;;;;;;;9.63;7.93;;;11.90;99.90;;;;;;5044891;28;20169;-84
2022/04/30 10:52:50;;;;;;;9.63;7.53;;;12.00;99.90;;;;;;5053125;28;20185;-80
2022/04/30 10:55:19;;;;;;;10.43;8.47;;;12.00;99.90;;;;;;5031810;28;20189;-80
2022/04/30 10:57:46;;;;;;;8.07;7.23;;;12.00;99.90;;;;;;5048402;28;20169;-83
2022/04/30 11:00:14;;;;;;;8.70;7.17;;;12.00;99.90;;;;;;5046745;28;20177;-80
2022/04/30 11:02:40;;;;;;;8.17;6.77;;;12.00;99.90;;;;;;5041635;28;20217;-82
2022/04/30 11:05:23;;;;;;;9.20;7.30;;;12.00;1.00;;;;;;5062067;28;20151;-82
2022/04/30 11:07:50;;;;;;;8.23;7.20;;;12.00;47.60;;;;;;5046842;28;20154;-83
2022/04/30 11:10:17;;;;;;;8.63;7.73;;;12.00;1.00;;;;;;5050258;28;20178;-83
2022/04/30 11:12:46;;;;;;;9.07;7.60;;;12.00;99.90;;;;;;5048352;28;20186;-85
2022/04/30 11:15:20;;;;;;;8.90;8.00;;;12.10;1.00;;;;;;5045428;28;20166;-85
2022/04/30 11:17:48;;;;;;;9.90;8.20;;;12.20;99.90;;;;;;5046178;28;20296;-85
2022/04/30 11:20:33;;;;;;;8.60;7.80;;;12.20;1.00;;;;;;5048641;28;20185;-87
2022/04/30 11:23:02;;;;;;;8.90;8.00;;;12.40;1.00;;;;;;5042751;28;20206;-83
2022/04/30 11:25:36;;;;;;;6.60;6.00;;;12.70;99.90;;;;;;5026299;28;20220;-84
2022/04/30 11:28:07;;;;;;;7.80;6.30;;;12.60;1.00;;;;;;5033797;28;20684;-85
2022/04/30 11:30:38;;;;;;;8.57;5.70;;;12.70;99.90;;;;;;5037806;28;20161;-85
2022/04/30 11:33:04;;;;;;;7.50;6.37;;;12.80;99.90;;;;;;5036255;28;20185;-86
2022/04/30 11:35:30;;;;;;;11.00;7.73;;;12.80;1.00;;;;;;5036828;28;20224;-84
2022/04/30 11:37:57;;;;;;;8.13;6.67;;;12.80;99.90;;;;;;5037216;28;20545;-82
2022/04/30 11:40:23;;;;;;;7.60;6.80;;;12.70;1.00;;;;;;5024105;28;20171;-84
2022/04/30 11:42:59;;;;;;;7.53;6.80;;;12.40;99.90;;;;;;5012879;28;20210;-82
2022/04/30 11:45:29;;;;;;;7.93;6.27;;;12.50;99.90;;;;;;5034928;28;20180;-83
2022/04/30 11:48:03;;;;;;;7.53;6.50;;;12.50;1.00;;;;;;5027835;28;20181;-83
2022/04/30 11:50:29;;;;;;;9.33;6.50;;;12.50;99.90;;;;;;5037489;28;20544;-84
2022/04/30 11:52:56;;;;;;;7.27;5.67;;;12.70;99.90;;;;;;5038728;28;20203;-83
2022/04/30 11:55:23;;;;;;;10.00;6.47;;;12.80;1.00;;;;;;5037346;28;20166;-84
2022/04/30 11:57:50;;;;;;;9.83;5.80;;;12.90;1.00;;;;;;5035617;28;20203;-83
2022/04/30 12:00:18;;;;;;;7.20;6.37;;;13.20;1.00;;;;;;5025448;28;20171;-81
2022/04/30 12:02:49;;;;;;;7.00;6.30;;;13.20;1.00;;;;;;5022652;28;20633;-82
2022/04/30 12:05:15;;;;;;;8.73;6.83;;;13.20;99.90;;;;;;5028230;28;20257;-83
2022/04/30 12:07:45;;;;;;;7.63;6.00;;;13.40;1.00;;;;;;5024791;28;20278;-83
2022/04/30 12:10:15;;;;;;;7.80;5.90;;;13.40;1.00;;;;;;5014703;28;20250;-84
2022/04/30 12:12:41;;;;;;;8.20;6.10;;;13.40;99.90;;;;;;5014770;28;20213;-83
2022/04/30 12:15:22;;;;;;;10.23;6.60;;;13.50;99.90;;;;;;5023117;28;20634;-84
2022/04/30 12:26:14;;;;;;;9.23;7.90;;;13.10;1.00;;;;;;5018327;28;20169;-83
2022/04/30 12:28:45;;;;;;;11.50;7.20;;;13.10;99.90;;;;;;5038283;28;20177;-81
2022/04/30 12:31:10;;;;;;;9.47;6.80;;;13.00;1.00;;;;;;5038209;28;20177;-83
2022/04/30 12:33:50;;;;;;;8.43;7.63;;;13.00;1.00;;;;;;5038091;28;20174;-80
2022/04/30 12:36:17;;;;;;;10.27;7.67;;;12.90;11.10;;;;;;5034703;28;20265;-84
2022/04/30 12:38:54;;;;;;;9.00;7.27;;;13.00;56.40;;;;;;5040086;28;20250;-82
2022/04/30 12:41:20;;;;;;;6.60;5.23;;;13.20;1.00;;;;;;5042290;28;20654;-81
2022/04/30 12:43:45;;;;;;;6.60;5.47;;;13.30;99.90;;;;;;5041977;28;20250;-84
2022/04/30 12:46:22;;;;;;;8.97;5.53;;;13.20;1.00;;;;;;5037633;28;20193;-82
2022/04/30 12:48:49;;;;;;;8.50;5.33;;;13.30;1.00;;;;;;5018866;28;20197;-81
2022/04/30 12:51:16;;;;;;;6.33;4.97;;;13.50;99.90;;;;;;5018625;28;20529;-82
2022/04/30 12:53:43;;;;;;;7.43;4.80;;;13.70;1.00;;;;;;5019095;28;20194;-81
2022/04/30 12:56:08;;;;;;;6.63;5.27;;;14.00;99.90;;;;;;5030990;28;20170;-78
2022/04/30 12:58:35;;;;;;;7.07;4.53;;;14.00;1.00;;;;;;5038411;28;20211;-84
2022/04/30 13:01:00;;;;;;;6.97;4.50;;;14.00;77.50;;;;;;5032477;28;20193;-82
2022/04/30 13:03:28;;;;;;;9.53;4.63;;;14.10;1.00;;;;;;5026943;28;20614;-84
2022/04/30 13:05:55;;;;;;;6.50;4.43;;;14.10;1.00;;;;;;5026369;28;20181;-83
2022/04/30 13:08:23;;;;;;;8.33;4.80;;;14.00;1.00;;;;;;5038105;28;20177;-83
2022/04/30 13:13:35;;;;;;;7.03;4.60;;;13.90;7.30;;;;;;5040128;28;20658;-80
2022/04/30 13:16:09;;;;;;;6.27;4.53;;;13.90;99.90;;;;;;5039585;28;20181;-81
2022/04/30 13:18:36;;;;;;;6.53;4.60;;;13.70;1.00;;;;;;5038579;28;20169;-82
2022/04/30 13:21:03;;;;;;;7.13;5.30;;;13.60;1.00;;;;;;5038365;28;20178;-83
2022/04/30 13:23:29;;;;;;;5.67;4.83;;;13.70;99.90;;;;;;5037862;28;20200;-83
2022/04/30 13:25:56;;;;;;;8.57;4.83;;;13.40;1.00;;;;;;5037928;28;20229;-82
2022/04/30 13:28:22;;;;;;;10.33;5.30;;;13.40;32.20;;;;;;5037711;28;20221;-82
2022/04/30 13:30:47;;;;;;;7.10;4.60;;;13.50;99.90;;;;;;5039759;28;20708;-82
2022/04/30 13:33:13;;;;;;;7.63;5.53;;;13.60;63.30;;;;;;5039572;28;20158;-82
2022/04/30 13:35:39;;;;;;;6.27;5.17;;;13.40;1.00;;;;;;5038874;28;20180;-84
2022/04/30 13:38:05;;;;;;;9.23;5.80;;;13.20;1.00;;;;;;5044522;28;20316;-83
2022/04/30 13:40:34;;;;;;;9.90;6.23;;;13.10;99.90;;;;;;5067735;28;20177;-84